createdAt,value
2022-10-01T00:04:16.962Z,8.80
2022-10-01T00:09:18.712Z,8.80
2022-10-01T00:14:20.481Z,8.60
2022-10-01T00:19:22.229Z,8.60
2022-10-01T00:24:23.960Z,8.60
2022-10-01T00:29:25.707Z,8.50
2022-10-01T00:34:27.476Z,8.40
2022-10-01T00:39:29.019Z,8.30
2022-10-01T00:44:30.676Z,8.30
2022-10-01T00:49:32.410Z,8.30
2022-10-01T00:54:33.926Z,8.20
2022-10-01T00:59:35.500Z,8.20
2022-10-01T01:04:37.076Z,8.10
2022-10-01T01:09:38.833Z,8.10
2022-10-01T01:14:40.477Z,8.00
2022-10-01T01:19:42.355Z,8.00
2022-10-01T01:24:44.078Z,7.90
2022-10-01T01:29:45.839Z,7.90
2022-10-01T01:34:47.601Z,7.80
2022-10-01T01:39:49.325Z,7.70
2022-10-01T01:44:51.089Z,7.70
2022-10-01T01:49:52.619Z,7.60
2022-10-01T01:54:54.300Z,7.60
2022-10-01T01:59:56.044Z,7.50
2022-10-01T02:04:57.789Z,7.50
2022-10-01T02:09:59.562Z,7.40
2022-10-01T02:15:01.302Z,7.40
2022-10-01T02:20:03.070Z,7.30
2022-10-01T02:25:04.914Z,7.20
2022-10-01T02:30:06.579Z,7.20
2022-10-01T02:35:08.325Z,7.20
2022-10-01T02:40:09.850Z,7.10
2022-10-01T02:45:11.528Z,7.00
2022-10-01T02:50:13.303Z,7.00
2022-10-01T02:55:15.019Z,6.90
2022-10-01T03:00:16.765Z,6.90
2022-10-01T03:05:18.525Z,6.90
2022-10-01T03:10:20.276Z,6.90
2022-10-01T03:15:22.066Z,6.90
2022-10-01T03:20:23.583Z,6.80
2022-10-01T03:25:25.253Z,6.80
2022-10-01T03:30:26.980Z,6.70
2022-10-01T03:35:28.735Z,6.60
2022-10-01T03:40:30.274Z,6.70
2022-10-01T03:45:31.972Z,6.60
2022-10-01T03:50:33.686Z,6.50
2022-10-01T03:55:35.424Z,6.40
2022-10-01T04:00:36.970Z,6.40
2022-10-01T04:05:38.637Z,6.30
2022-10-01T04:10:40.274Z,6.30
2022-10-01T04:15:41.845Z,6.30
2022-10-01T04:20:43.603Z,6.20
2022-10-01T04:25:45.322Z,6.20
2022-10-01T04:30:47.081Z,6.20
2022-10-01T04:35:48.844Z,6.20
2022-10-01T04:40:50.603Z,6.20
2022-10-01T04:45:52.344Z,6.20
2022-10-01T04:50:54.149Z,6.10
2022-10-01T04:55:55.874Z,6.00
2022-10-01T05:01:01.827Z,5.90
2022-10-01T05:06:04.100Z,5.90
2022-10-01T05:11:05.833Z,5.80
2022-10-01T05:16:07.637Z,5.70
2022-10-01T05:21:09.406Z,5.60
2022-10-01T05:26:11.099Z,5.70
2022-10-01T05:31:12.693Z,5.70
2022-10-01T05:36:14.279Z,5.70
2022-10-01T05:41:16.054Z,5.80
2022-10-01T05:46:17.825Z,5.90
2022-10-01T05:51:19.555Z,6.20
2022-10-01T05:56:21.073Z,6.40
2022-10-01T06:01:22.677Z,6.60
2022-10-01T06:06:24.518Z,7.10
2022-10-01T06:11:26.275Z,7.90
2022-10-01T06:16:27.996Z,8.40
2022-10-01T06:21:29.579Z,8.80
2022-10-01T06:26:31.241Z,9.20
2022-10-01T06:31:33.356Z,9.70
2022-10-01T06:36:35.106Z,9.70
2022-10-01T06:41:36.946Z,9.80
2022-10-01T06:46:38.870Z,10.10
2022-10-01T06:51:40.595Z,10.60
2022-10-01T06:56:42.384Z,11.30
2022-10-01T07:01:44.208Z,11.90
2022-10-01T07:06:45.858Z,12.40
2022-10-01T07:11:47.610Z,12.90
2022-10-01T07:16:49.471Z,13.20
2022-10-01T07:21:51.117Z,13.40
2022-10-01T07:26:52.656Z,13.70
2022-10-01T07:32:03.265Z,14.10
2022-10-01T07:37:04.879Z,14.60
2022-10-01T07:42:06.631Z,15.10
2022-10-01T07:47:08.354Z,15.50
2022-10-01T07:52:13.268Z,15.70
2022-10-01T07:57:15.316Z,16.00
2022-10-01T08:02:17.131Z,16.00
2022-10-01T08:07:18.837Z,16.40
2022-10-01T08:12:20.577Z,16.60
2022-10-01T08:17:26.084Z,16.50
2022-10-01T08:22:30.389Z,17.00
2022-10-01T08:27:32.110Z,16.90
2022-10-01T08:32:33.862Z,17.00
2022-10-01T08:37:35.624Z,17.10
2022-10-01T08:42:37.180Z,17.50
2022-10-01T08:47:38.831Z,17.80
2022-10-01T08:52:40.604Z,18.10
2022-10-01T08:57:42.325Z,18.00
2022-10-01T09:02:44.049Z,18.10
2022-10-01T09:07:45.833Z,18.10
2022-10-01T09:12:47.376Z,18.30
2022-10-01T09:17:49.021Z,18.40
2022-10-01T09:22:50.763Z,18.60
2022-10-01T09:27:52.603Z,18.80
2022-10-01T09:32:54.263Z,18.90
2022-10-01T09:37:56.047Z,19.00
2022-10-01T09:42:57.787Z,18.60
2022-10-01T09:47:59.306Z,18.30
2022-10-01T09:53:00.981Z,18.20
2022-10-01T09:58:02.749Z,18.00
2022-10-01T10:03:04.339Z,18.10
2022-10-01T10:08:06.281Z,18.30
2022-10-01T10:13:08.026Z,18.30
2022-10-01T10:18:09.762Z,18.30
2022-10-01T10:23:11.505Z,18.30
2022-10-01T10:28:13.339Z,18.40
2022-10-01T10:33:15.065Z,18.60
2022-10-01T10:38:16.761Z,18.90
2022-10-01T10:43:18.523Z,19.20
2022-10-01T10:48:22.643Z,19.20
2022-10-01T10:53:24.288Z,19.50
2022-10-01T10:58:25.989Z,19.50
2022-10-01T11:03:27.749Z,19.50
2022-10-01T11:08:29.504Z,19.40
2022-10-01T11:13:31.241Z,19.20
2022-10-01T11:18:32.781Z,18.80
2022-10-01T11:23:34.303Z,18.50
2022-10-01T11:28:35.829Z,18.40
2022-10-01T11:33:37.353Z,18.20
2022-10-01T11:38:39.102Z,18.00
2022-10-01T11:43:40.857Z,18.10
2022-10-01T11:48:42.491Z,18.00
2022-10-01T11:53:44.040Z,18.10
2022-10-01T11:58:45.780Z,18.10
2022-10-01T12:03:47.551Z,18.00
2022-10-01T12:08:49.322Z,17.90
2022-10-01T12:13:51.057Z,17.90
2022-10-01T12:18:52.711Z,17.90
2022-10-01T12:23:54.255Z,18.00
2022-10-01T12:29:00.102Z,18.00
2022-10-01T12:34:02.210Z,17.90
2022-10-01T12:39:03.917Z,17.90
2022-10-01T12:44:05.656Z,17.70
2022-10-01T12:49:07.189Z,17.60
2022-10-01T12:54:12.804Z,17.60
2022-10-01T12:59:15.309Z,17.50
2022-10-01T13:04:16.957Z,17.50
2022-10-01T13:09:18.521Z,17.40
2022-10-01T13:14:20.259Z,17.50
2022-10-01T13:19:22.019Z,17.60
2022-10-01T13:24:23.763Z,17.60
2022-10-01T13:29:25.423Z,17.60
2022-10-01T13:34:27.246Z,17.50
2022-10-01T13:39:30.354Z,17.50
2022-10-01T13:44:32.343Z,17.40
2022-10-01T13:49:34.075Z,17.30
2022-10-01T13:54:35.846Z,17.20
2022-10-01T13:59:37.401Z,17.10
2022-10-01T14:04:39.033Z,16.90
2022-10-01T14:09:40.542Z,16.90
2022-10-01T14:14:42.220Z,16.70
2022-10-01T14:19:43.760Z,16.60
2022-10-01T14:24:45.428Z,16.50
2022-10-01T14:29:46.939Z,16.40
2022-10-01T14:34:48.639Z,16.30
2022-10-01T14:39:50.378Z,16.30
2022-10-01T14:44:52.120Z,16.00
2022-10-01T14:49:53.894Z,15.70
2022-10-01T14:54:55.433Z,15.20
2022-10-01T14:59:57.086Z,14.50
2022-10-01T15:04:58.894Z,13.90
2022-10-01T15:10:00.493Z,13.40
2022-10-01T15:15:02.066Z,13.20
2022-10-01T15:20:03.777Z,13.00
2022-10-01T15:25:05.536Z,12.80
2022-10-01T15:30:07.292Z,12.60
2022-10-01T15:35:09.059Z,12.60
2022-10-01T15:40:10.805Z,12.40
2022-10-01T15:45:12.334Z,12.40
2022-10-01T15:50:13.976Z,12.30
2022-10-01T15:55:15.777Z,12.10
2022-10-01T16:00:17.521Z,12.00
2022-10-01T16:05:19.264Z,11.80
2022-10-01T16:10:21.024Z,11.60
2022-10-01T16:15:22.805Z,11.40
2022-10-01T16:20:24.427Z,11.30
2022-10-01T16:25:25.981Z,11.20
2022-10-01T16:30:27.737Z,11.20
2022-10-01T16:35:29.491Z,11.10
2022-10-01T16:40:31.215Z,11.00
2022-10-01T16:45:33.039Z,11.00
2022-10-01T16:50:34.736Z,10.90
2022-10-01T16:55:36.527Z,10.90
2022-10-01T17:00:38.265Z,10.90
2022-10-01T17:05:40.023Z,10.80
2022-10-01T17:10:41.780Z,10.80
2022-10-01T17:15:43.513Z,10.80
2022-10-01T17:20:45.292Z,10.80
2022-10-01T17:25:47.019Z,10.80
2022-10-01T17:30:48.774Z,10.80
2022-10-01T17:35:50.321Z,10.80
2022-10-01T17:40:56.844Z,10.80
2022-10-01T17:45:58.835Z,10.70
2022-10-01T17:51:00.491Z,10.70
2022-10-01T17:56:02.294Z,10.70
2022-10-01T18:01:04.051Z,10.70
2022-10-01T18:06:05.746Z,10.70
2022-10-01T18:11:07.516Z,10.80
2022-10-01T18:16:09.314Z,10.80
2022-10-01T18:21:10.887Z,10.80
2022-10-01T18:26:12.476Z,10.80
2022-10-01T18:31:14.284Z,10.80
2022-10-01T18:36:15.954Z,10.80
2022-10-01T18:41:17.710Z,10.70
2022-10-01T18:51:45.046Z,10.80
2022-10-01T18:56:46.791Z,10.70
2022-10-01T19:01:57.364Z,10.70
2022-10-01T19:07:01.417Z,10.80
2022-10-01T19:12:03.013Z,10.70
2022-10-01T19:17:04.526Z,10.60
2022-10-01T19:22:08.436Z,10.60
2022-10-01T19:27:10.170Z,10.60
2022-10-01T19:32:11.913Z,10.60
2022-10-01T19:37:13.444Z,10.60
2022-10-01T19:42:15.128Z,10.60
2022-10-01T19:47:16.663Z,10.60
2022-10-01T19:52:18.327Z,10.70
2022-10-01T19:57:19.947Z,10.60
2022-10-01T20:02:21.545Z,10.70
2022-10-01T20:07:23.161Z,10.70
2022-10-01T20:12:24.697Z,10.60
2022-10-01T20:17:26.455Z,10.70
2022-10-01T20:22:28.217Z,10.70
2022-10-01T20:27:29.935Z,10.70
2022-10-01T20:32:31.702Z,10.80
2022-10-01T20:37:33.478Z,10.80
2022-10-01T20:42:35.224Z,10.80
2022-10-01T20:47:36.982Z,10.80
2022-10-01T20:52:38.505Z,10.80
2022-10-01T20:57:40.177Z,10.80
2022-10-01T21:02:43.992Z,10.70
2022-10-01T21:07:45.552Z,10.60
2022-10-01T21:12:47.319Z,10.40
2022-10-01T21:17:49.722Z,10.30
2022-10-01T21:22:51.446Z,10.20
2022-10-01T21:27:53.041Z,10.20
2022-10-01T21:32:57.750Z,10.30
2022-10-01T21:38:01.742Z,10.30
2022-10-01T21:43:03.465Z,10.40
2022-10-01T21:48:05.717Z,10.40
2022-10-01T21:53:07.306Z,10.50
2022-10-01T21:58:09.023Z,10.50
2022-10-01T22:03:10.808Z,10.50
2022-10-01T22:08:12.573Z,10.60
2022-10-01T22:13:14.326Z,10.60
2022-10-01T22:18:16.050Z,10.70
2022-10-01T22:23:17.815Z,10.70
2022-10-01T22:28:19.609Z,10.80
2022-10-01T22:33:21.412Z,10.90
2022-10-01T22:38:23.096Z,11.00
2022-10-01T22:43:24.811Z,11.00
2022-10-01T22:48:26.624Z,11.00
2022-10-01T22:53:28.362Z,11.00
2022-10-01T22:58:29.911Z,11.10
2022-10-01T23:03:31.559Z,11.10
2022-10-01T23:08:33.098Z,11.20
2022-10-01T23:13:34.619Z,11.30
2022-10-01T23:18:36.183Z,11.50
2022-10-01T23:23:37.823Z,11.50
2022-10-01T23:28:40.746Z,11.60
2022-10-01T23:33:42.379Z,11.60
2022-10-01T23:38:44.139Z,11.70
2022-10-01T23:43:45.890Z,11.70
2022-10-01T23:48:47.621Z,11.70
2022-10-01T23:53:49.175Z,11.70
2022-10-01T23:58:50.825Z,11.70
